Nearby METAR Reports

 

KAVP - Avoca/Wilkes B., Pennsylvania, USA
Distance from station: N 16mi, 25km
Updated: 06/26/2019 3:54pm
Few Clouds
Few Clouds
 Wind from SW
Wind: SW 14 mph , 22 km/h
Temperature: 88°F , 31°C
Heat Index: 89°F , 32°C
Dew Point: 63°F , 17°C
Humidity: 43%
Barometer: 30.01 inHg , 1016.3 hPa
Clouds: Few Clouds
Visibility: 10 miles , 16 km
Cloud details: Few Clouds 6000 ft
2019/06/26 19:54 KAVP 261954Z 23012KT 10SM FEW060 31/17 A3001 RMK AO2 SLP155 T03060167
KMPO - Mt. Pocono, Pennsylvania, USA
Distance from station: E 20mi, 33km
Updated: 06/26/2019 3:53pm
Few Clouds
Few Clouds
 Wind from WSW
Wind: WSW 12 mph , 19 km/h, Gust: 22 mph , 35 km/h
Temperature: 81°F , 27°C
Heat Index: 81°F , 27°C
Dew Point: 57°F , 14°C
Humidity: 45%
Barometer: 30.08 inHg , 1018.6 hPa
Clouds: Few Clouds
Visibility: 10 miles , 16 km
Cloud details: Few Clouds 5500 ft
2019/06/26 19:53 KMPO 261953Z AUTO 24010G19KT 10SM FEW055 27/14 A3008 RMK AO2 SLP174 T02720144
 
KABE - Allentown, Pennsylvania, USA
Distance from station: SSE 36mi, 58km
Updated: 06/26/2019 3:51pm
Clear
Clear
 Wind from SW
Wind: SW 10 mph , 17 km/h
Temperature: 88°F , 31°C
Heat Index: 90°F , 32°C
Dew Point: 64°F , 18°C
Humidity: 46%
Barometer: 30.02 inHg , 1016.6 hPa
Clouds: Clear
Visibility: 10 miles , 16 km
2019/06/26 19:51 KABE 261951Z 23009KT 10SM CLR 31/18 A3002 RMK AO2 SLP162 T03110183
KXLL - Allentown Queen, Pennsylvania, USA
Distance from station: SSE 41mi, 65km
Updated: 06/26/2019 3:55pm
Partly cloudy
Partly cloudy
 Wind from WSW
Wind: WSW 9 mph , 15 km/h
Barometer: 30.03 inHg , 1016.9 hPa
Clouds: Partly cloudy
Visibility: 10 miles , 16 km
Cloud details: Partly cloudy 6000 ft
Partly cloudy 7000 ft
2019/06/26 19:55 KXLL 261955Z AUTO 24008KT 10SM SCT060 SCT070 A3003 RMK AO2